createdAt,value
2019-01-14T00:02:09.455Z,95883.83
2019-01-14T00:04:40.628Z,95850.11
2019-01-14T00:07:10.970Z,95867.28
2019-01-14T00:09:42.335Z,95857.01
2019-01-14T00:12:12.959Z,95860.62
2019-01-14T00:14:43.611Z,95862.31
2019-01-14T00:17:28.068Z,95860.41
2019-01-14T00:19:59.760Z,95852.58
2019-01-14T00:22:30.386Z,95864.72
2019-01-14T00:25:01.742Z,95852.17
2019-01-14T00:27:32.588Z,95874.12
2019-01-14T00:30:03.524Z,95866.89
2019-01-14T00:32:41.205Z,95873.12
2019-01-14T00:35:12.368Z,95873.72
2019-01-14T00:37:48.194Z,95873.59
2019-01-14T00:40:50.740Z,95862.53
2019-01-14T00:43:21.776Z,95853.03
2019-01-14T00:45:53.091Z,95892.81
2019-01-14T00:48:23.787Z,95898.20
2019-01-14T00:50:54.898Z,95896.50
2019-01-14T00:53:26.148Z,95901.33
2019-01-14T00:56:06.518Z,95895.91
2019-01-14T00:58:37.513Z,95897.98
2019-01-14T01:01:07.901Z,95897.59
2019-01-14T01:03:38.982Z,95900.55
2019-01-14T01:06:09.669Z,95905.50
2019-01-14T01:08:41.078Z,95907.06
2019-01-14T01:11:11.791Z,95921.25
2019-01-14T01:14:03.700Z,95913.14
2019-01-14T01:16:35.375Z,95902.84
2019-01-14T01:19:06.055Z,95916.75
2019-01-14T01:21:37.054Z,95904.94
2019-01-14T01:24:07.971Z,95897.20
2019-01-14T01:26:38.941Z,95904.61
2019-01-14T01:29:17.130Z,95907.37
2019-01-14T01:31:48.671Z,95914.20
2019-01-14T01:34:19.909Z,95913.47
2019-01-14T01:36:51.281Z,95915.91
2019-01-14T01:39:22.882Z,95912.83
2019-01-14T01:41:53.867Z,95920.03
2019-01-14T01:44:24.581Z,95911.44
2019-01-14T01:46:55.159Z,95918.38
2019-01-14T01:49:26.182Z,95920.59
2019-01-14T01:51:56.863Z,95913.75
2019-01-14T01:54:28.242Z,95917.03
2019-01-14T01:56:59.487Z,95915.16
2019-01-14T01:59:30.695Z,95900.89
2019-01-14T03:01:59.127Z,96076.32
2019-01-14T03:04:31.141Z,96070.34
2019-01-14T03:07:01.437Z,96056.81
2019-01-14T03:09:33.145Z,96061.23
2019-01-14T03:12:04.421Z,96069.92
2019-01-14T03:14:34.725Z,96086.80
2019-01-14T03:17:06.202Z,96095.83
2019-01-14T03:19:36.489Z,96111.53
2019-01-14T03:22:07.148Z,96101.61
2019-01-14T03:24:37.883Z,96105.63
2019-01-14T03:27:09.349Z,96092.84
2019-01-14T03:29:40.355Z,96095.80
2019-01-14T03:32:11.662Z,96100.55
2019-01-14T03:34:42.557Z,96102.67
2019-01-14T03:37:32.965Z,96094.07
2019-01-14T03:40:03.726Z,96082.72
2019-01-14T03:42:34.370Z,96085.43
2019-01-14T03:45:05.239Z,96093.38
2019-01-14T03:47:36.910Z,96092.48
2019-01-14T03:50:12.667Z,96101.29
2019-01-14T03:52:42.954Z,96102.58
2019-01-14T03:55:14.064Z,96104.77
2019-01-14T03:57:46.300Z,96110.24
2019-01-14T04:00:17.917Z,96105.38
2019-01-14T04:02:48.875Z,96120.34
2019-01-14T04:05:37.148Z,96130.11
2019-01-14T04:08:08.288Z,96140.22
2019-01-14T04:10:38.969Z,96153.33
2019-01-14T04:13:09.929Z,96154.81
2019-01-14T04:15:40.529Z,96148.73
2019-01-14T04:18:11.219Z,96159.16
2019-01-14T04:20:44.948Z,96162.14
2019-01-14T04:23:16.264Z,96170.10
2019-01-14T04:25:47.306Z,96171.81
2019-01-14T04:28:18.351Z,96175.66
2019-01-14T04:30:48.972Z,96187.98
2019-01-14T04:33:22.154Z,96193.95
2019-01-14T04:35:53.104Z,96189.87
2019-01-14T04:38:24.546Z,96181.03
2019-01-14T04:40:55.838Z,96197.53
2019-01-14T04:43:26.121Z,96194.30
2019-01-14T04:45:57.115Z,96199.36
2019-01-14T04:48:27.817Z,96205.40
2019-01-14T04:50:59.345Z,96214.97
2019-01-14T04:53:30.374Z,96212.14
2019-01-14T04:56:00.826Z,96219.67
2019-01-14T04:58:31.797Z,96216.33
2019-01-14T05:01:03.017Z,96221.37
2019-01-14T05:03:34.643Z,96226.41
2019-01-14T05:06:06.407Z,96242.56
2019-01-14T05:08:37.059Z,96249.73
2019-01-14T05:11:07.392Z,96263.27
2019-01-14T05:13:39.339Z,96267.80
2019-01-14T05:16:10.277Z,96263.14
2019-01-14T05:18:41.224Z,96281.75
2019-01-14T05:21:12.264Z,96276.59
2019-01-14T05:23:42.902Z,96272.42
2019-01-14T05:26:13.632Z,96276.63
2019-01-14T05:28:44.422Z,96276.19
2019-01-14T05:31:16.224Z,96276.97
2019-01-14T05:33:47.256Z,96282.70
2019-01-14T05:36:18.172Z,96287.00
2019-01-14T05:38:59.682Z,96291.70
2019-01-14T05:41:30.288Z,96294.15
2019-01-14T05:44:01.561Z,96293.77
2019-01-14T05:46:32.212Z,96289.57
2019-01-14T05:49:03.060Z,96299.83
2019-01-14T05:51:34.359Z,96310.97
2019-01-14T05:54:05.223Z,96315.52
2019-01-14T05:56:36.335Z,96321.43
2019-01-14T05:59:06.971Z,96330.28
2019-01-14T06:01:38.046Z,96338.77
2019-01-14T06:04:16.868Z,96344.03
2019-01-14T06:06:48.147Z,96341.87
2019-01-14T06:09:25.053Z,96336.14
2019-01-14T06:11:56.040Z,96338.39
2019-01-14T06:14:26.650Z,96340.34
2019-01-14T06:16:57.900Z,96335.22
2019-01-14T06:19:31.442Z,96348.36
2019-01-14T06:22:05.584Z,96347.63
2019-01-14T06:24:36.746Z,96349.48
2019-01-14T06:27:07.809Z,96361.02
2019-01-14T06:29:38.809Z,96358.79
2019-01-14T06:32:09.966Z,96361.41
2019-01-14T06:34:41.331Z,96360.16
2019-01-14T06:37:41.851Z,96369.41
2019-01-14T06:40:14.178Z,96368.09
2019-01-14T06:42:45.876Z,96361.87
2019-01-14T06:45:17.121Z,96372.31
2019-01-14T06:47:48.172Z,96371.63
2019-01-14T06:50:20.437Z,96375.78
2019-01-14T06:52:51.069Z,96377.34
2019-01-14T06:55:22.080Z,96390.84
2019-01-14T06:57:53.451Z,96398.50
2019-01-14T07:00:29.270Z,96408.23
2019-01-14T07:02:59.560Z,96412.92
2019-01-14T07:05:30.565Z,96410.91
2019-01-14T07:08:00.881Z,96411.93
2019-01-14T07:10:34.234Z,96409.28
2019-01-14T07:13:05.019Z,96413.36
2019-01-14T07:15:35.347Z,96426.59
2019-01-14T07:18:05.964Z,96419.73
2019-01-14T07:20:37.321Z,96422.02
2019-01-14T07:23:08.405Z,96419.97
2019-01-14T07:25:38.710Z,96425.44
2019-01-14T07:28:08.997Z,96432.32
2019-01-14T07:30:39.736Z,96426.06
2019-01-14T07:33:10.702Z,96425.56
2019-01-14T07:35:41.729Z,96430.83
2019-01-14T07:38:12.072Z,96443.67
2019-01-14T07:40:43.425Z,96454.59
2019-01-14T07:43:14.471Z,96459.28
2019-01-14T07:45:45.490Z,96472.19
2019-01-14T07:48:16.839Z,96473.28
2019-01-14T07:50:47.852Z,96482.44
2019-01-14T07:53:19.356Z,96485.41
2019-01-14T07:55:50.771Z,96488.47
2019-01-14T07:58:22.196Z,96496.66
2019-01-14T08:00:53.538Z,96505.06
2019-01-14T08:03:24.849Z,96504.44
2019-01-14T08:05:55.850Z,96501.42
2019-01-14T08:08:27.252Z,96505.44
2019-01-14T08:10:58.557Z,96512.75
2019-01-14T08:13:29.643Z,96524.08
2019-01-14T08:16:01.072Z,96527.34
2019-01-14T08:18:32.081Z,96519.67
2019-01-14T08:21:03.109Z,96527.63
2019-01-14T08:23:33.431Z,96525.13
2019-01-14T08:26:04.384Z,96530.30
2019-01-14T08:28:36.343Z,96541.03
2019-01-14T08:31:07.038Z,96551.27
2019-01-14T08:33:37.673Z,96556.49
2019-01-14T08:36:08.890Z,96562.95
2019-01-14T08:38:39.571Z,96569.16
2019-01-14T08:41:10.301Z,96565.86
2019-01-14T08:43:42.055Z,96560.73
2019-01-14T08:46:12.660Z,96576.04
2019-01-14T08:48:48.766Z,96578.05
2019-01-14T08:51:15.801Z,96589.72
2019-01-14T08:53:47.307Z,96592.20
2019-01-14T08:56:18.546Z,96595.57
2019-01-14T08:58:49.556Z,96591.52
2019-01-14T09:01:20.272Z,96598.03
2019-01-14T09:03:51.750Z,96598.45
2019-01-14T09:06:22.756Z,96605.48
2019-01-14T09:08:53.835Z,96612.41
2019-01-14T09:11:25.179Z,96611.81
2019-01-14T09:13:55.798Z,96611.27
2019-01-14T09:16:26.491Z,96609.45
2019-01-14T09:18:56.779Z,96611.05
2019-01-14T09:21:27.696Z,96620.05
2019-01-14T09:23:59.038Z,96618.47
2019-01-14T09:26:29.725Z,96622.66
2019-01-14T09:29:00.715Z,96616.27
2019-01-14T09:31:33.043Z,96612.52
2019-01-14T09:34:05.089Z,96614.28
2019-01-14T09:36:35.685Z,96620.16
2019-01-14T09:39:10.064Z,96624.82
2019-01-14T09:41:40.689Z,96620.82
2019-01-14T09:44:11.309Z,96632.19
2019-01-14T09:46:42.710Z,96638.16
2019-01-14T09:49:14.050Z,96650.44
2019-01-14T09:51:44.769Z,96656.34
2019-01-14T09:54:15.427Z,96648.16
2019-01-14T09:56:46.440Z,96654.27
2019-01-14T09:59:17.521Z,96651.20
2019-01-14T10:01:47.864Z,96647.23
2019-01-14T10:04:18.868Z,96653.19
2019-01-14T10:06:49.806Z,96654.49
2019-01-14T10:09:21.732Z,96650.92
2019-01-14T10:11:52.208Z,96647.48
2019-01-14T10:14:22.825Z,96652.31
2019-01-14T10:16:55.341Z,96648.17
2019-01-14T10:19:26.338Z,96658.53
2019-01-14T10:21:57.639Z,96658.86
2019-01-14T10:24:27.985Z,96658.91
2019-01-14T10:26:58.950Z,96656.70
2019-01-14T10:29:29.893Z,96648.59
2019-01-14T10:32:01.353Z,96646.25
2019-01-14T10:34:32.033Z,96641.57
2019-01-14T10:37:03.117Z,96628.22
2019-01-14T10:39:33.786Z,96633.05
2019-01-14T10:42:05.148Z,96626.33
2019-01-14T10:44:36.740Z,96628.59
2019-01-14T10:47:07.059Z,96632.19
2019-01-14T10:49:38.360Z,96622.19
2019-01-14T10:52:09.257Z,96618.48
2019-01-14T10:54:40.636Z,96620.33
2019-01-14T10:57:11.223Z,96615.44
2019-01-14T10:59:41.848Z,96617.93
2019-01-14T11:02:13.171Z,96609.23
2019-01-14T11:04:44.748Z,96611.30
2019-01-14T11:07:16.101Z,96608.20
2019-01-14T11:09:47.129Z,96607.05
2019-01-14T11:12:17.840Z,96603.93
2019-01-14T11:14:48.832Z,96611.08
2019-01-14T11:17:19.558Z,96611.56
2019-01-14T11:19:50.645Z,96615.11
2019-01-14T11:22:20.900Z,96608.05
2019-01-14T11:24:52.436Z,96614.48
2019-01-14T11:27:23.705Z,96618.06
2019-01-14T11:29:54.896Z,96620.66
2019-01-14T11:32:27.731Z,96612.77
2019-01-14T11:34:58.779Z,96616.14
2019-01-14T11:37:30.113Z,96618.70
2019-01-14T11:40:01.152Z,96616.98
2019-01-14T11:42:32.380Z,96616.30
2019-01-14T11:45:03.481Z,96619.49
2019-01-14T11:47:35.866Z,96612.41
2019-01-14T11:50:09.635Z,96624.34
2019-01-14T11:52:41.539Z,96630.80
2019-01-14T11:55:12.754Z,96623.78
2019-01-14T11:57:43.752Z,96628.68
2019-01-14T12:00:26.150Z,96628.24
2019-01-14T12:02:57.286Z,96636.05
2019-01-14T12:05:27.874Z,96637.92
2019-01-14T12:07:59.570Z,96628.49
2019-01-14T12:10:30.144Z,96630.73
2019-01-14T12:13:00.753Z,96629.36
2019-01-14T12:15:32.637Z,96628.11
2019-01-14T12:18:04.312Z,96625.55
2019-01-14T12:20:35.655Z,96630.77
2019-01-14T12:23:06.951Z,96638.00
2019-01-14T12:25:38.240Z,96641.77
2019-01-14T12:28:08.632Z,96634.12
2019-01-14T12:30:41.933Z,96634.72
2019-01-14T12:33:13.318Z,96640.04
2019-01-14T12:35:50.508Z,96636.33
2019-01-14T12:38:21.180Z,96642.54
2019-01-14T12:40:52.259Z,96646.63
2019-01-14T12:43:22.957Z,96646.66
2019-01-14T12:45:53.266Z,96644.25
2019-01-14T12:48:24.642Z,96639.52
2019-01-14T12:50:55.573Z,96647.19
2019-01-14T12:53:26.565Z,96653.46
2019-01-14T12:55:57.499Z,96651.41
2019-01-14T12:58:28.127Z,96655.66
2019-01-14T13:00:59.766Z,96656.73
2019-01-14T13:03:30.430Z,96652.03
2019-01-14T13:06:01.116Z,96647.77
2019-01-14T13:08:31.722Z,96647.66
2019-01-14T13:11:02.012Z,96647.84
2019-01-14T13:13:33.046Z,96645.91
2019-01-14T13:16:04.069Z,96646.04
2019-01-14T13:18:35.863Z,96653.02
2019-01-14T13:21:07.291Z,96660.51
2019-01-14T13:23:37.848Z,96657.02
2019-01-14T13:26:08.799Z,96664.89
2019-01-14T13:28:40.207Z,96654.16
2019-01-14T13:31:10.534Z,96655.47
2019-01-14T13:33:41.042Z,96651.62
2019-01-14T13:36:11.724Z,96651.69
2019-01-14T13:38:42.722Z,96651.69
2019-01-14T13:41:13.634Z,96644.03
2019-01-14T13:43:44.677Z,96637.98
2019-01-14T13:46:26.259Z,96654.39
2019-01-14T13:48:53.949Z,96663.81
2019-01-14T13:51:24.591Z,96667.42
2019-01-14T13:53:55.234Z,96667.53
2019-01-14T13:56:26.272Z,96667.27
2019-01-14T13:58:57.203Z,96669.48
2019-01-14T14:01:28.560Z,96671.22
2019-01-14T14:03:59.598Z,96673.77
2019-01-14T14:06:29.892Z,96669.48
2019-01-14T14:09:00.490Z,96660.06
2019-01-14T14:11:31.567Z,96667.84
2019-01-14T14:14:01.843Z,96676.70
2019-01-14T14:16:32.212Z,96678.34
2019-01-14T14:19:03.219Z,96680.62
2019-01-14T14:21:33.880Z,96674.16
2019-01-14T14:24:04.850Z,96678.30
2019-01-14T14:26:36.160Z,96677.44
2019-01-14T14:29:08.124Z,96687.63
2019-01-14T14:31:39.390Z,96684.94
2019-01-14T14:34:10.666Z,96692.52
2019-01-14T14:36:40.990Z,96707.94
2019-01-14T14:39:12.430Z,96713.77
2019-01-14T14:41:43.448Z,96722.87
2019-01-14T14:44:14.109Z,96738.41
2019-01-14T14:46:44.712Z,96739.42
2019-01-14T14:49:15.923Z,96734.11
2019-01-14T14:51:46.810Z,96738.89
2019-01-14T14:54:17.921Z,96739.08
2019-01-14T14:56:48.234Z,96745.39
2019-01-14T14:59:18.525Z,96748.19
2019-01-14T15:01:49.560Z,96753.92
2019-01-14T15:04:19.854Z,96762.28
2019-01-14T15:06:51.915Z,96765.25
2019-01-14T15:09:23.260Z,96770.80
2019-01-14T15:11:54.379Z,96764.16
2019-01-14T15:14:25.047Z,96761.28
2019-01-14T15:16:56.397Z,96757.23
2019-01-14T15:19:27.439Z,96759.84
2019-01-14T15:21:58.155Z,96762.97
2019-01-14T15:24:28.820Z,96779.28
2019-01-14T15:27:20.606Z,96772.86
2019-01-14T15:29:52.132Z,96793.83
2019-01-14T15:32:23.124Z,96786.11
2019-01-14T15:34:54.184Z,96787.37
2019-01-14T15:37:34.090Z,96787.88
2019-01-14T15:40:15.006Z,96791.93
2019-01-14T15:42:46.076Z,96791.94
2019-01-14T15:45:18.366Z,96806.67
2019-01-14T15:47:49.346Z,96803.39
2019-01-14T15:50:19.693Z,96803.25
2019-01-14T15:52:51.127Z,96805.39
2019-01-14T15:55:28.502Z,96803.48
2019-01-14T15:57:59.228Z,96807.78
2019-01-14T16:00:30.850Z,96815.34
2019-01-14T16:03:01.724Z,96818.20
2019-01-14T16:05:32.973Z,96825.83
2019-01-14T16:08:04.641Z,96831.91
2019-01-14T16:10:35.363Z,96840.45
2019-01-14T16:13:06.308Z,96844.48
2019-01-14T16:15:37.301Z,96842.00
2019-01-14T16:18:08.489Z,96843.16
2019-01-14T16:20:39.095Z,96863.85
2019-01-14T16:23:11.386Z,96863.86
2019-01-14T16:25:42.460Z,96866.16
2019-01-14T16:28:32.617Z,96868.56
2019-01-14T16:31:03.737Z,96870.95
2019-01-14T16:33:35.808Z,96872.12
2019-01-14T16:36:06.765Z,96888.12
2019-01-14T16:38:37.110Z,96899.42
2019-01-14T16:41:07.791Z,96911.44
2019-01-14T16:43:39.064Z,96906.25
2019-01-14T16:46:10.600Z,96917.16
2019-01-14T16:48:41.559Z,96927.02
2019-01-14T16:51:21.511Z,96942.88
2019-01-14T16:53:52.851Z,96941.22
2019-01-14T16:56:23.771Z,96943.21
2019-01-14T16:58:54.737Z,96949.86
2019-01-14T17:01:26.125Z,96961.88
2019-01-14T17:03:57.431Z,96969.41
2019-01-14T17:06:28.103Z,96982.98
2019-01-14T17:08:59.827Z,96995.11
2019-01-14T17:11:30.822Z,97008.95
2019-01-14T17:14:05.041Z,97029.63
2019-01-14T17:16:37.530Z,97034.92
2019-01-14T17:19:08.344Z,97045.19
2019-01-14T17:21:38.922Z,97045.64
2019-01-14T17:24:09.258Z,97043.06
2019-01-14T17:26:40.351Z,97048.91
2019-01-14T17:29:11.018Z,97056.84
2019-01-14T17:31:42.336Z,97052.52
2019-01-14T17:34:13.708Z,97051.45
2019-01-14T17:36:44.451Z,97051.19
2019-01-14T17:39:15.971Z,97055.61
2019-01-14T17:41:48.569Z,97060.98
2019-01-14T17:44:50.417Z,97062.30
2019-01-14T17:47:21.125Z,97066.45
2019-01-14T17:50:00.656Z,97062.16
2019-01-14T17:52:34.683Z,97071.95
2019-01-14T17:55:22.004Z,97069.50
2019-01-14T17:57:53.312Z,97065.69
2019-01-14T18:00:27.575Z,97063.41
2019-01-14T18:02:58.756Z,97063.91
2019-01-14T18:05:30.084Z,97075.39
2019-01-14T18:08:01.060Z,97078.11
2019-01-14T18:10:39.676Z,97081.41
2019-01-14T18:13:06.056Z,97085.38
2019-01-14T18:15:37.415Z,97086.41
2019-01-14T18:18:07.715Z,97087.56
2019-01-14T18:20:38.681Z,97088.17
2019-01-14T18:23:09.788Z,97086.51
2019-01-14T18:25:46.635Z,97093.96
2019-01-14T18:28:17.616Z,97100.72
2019-01-14T18:30:48.692Z,97104.55
2019-01-14T18:33:31.463Z,97105.80
2019-01-14T18:36:02.432Z,97110.80
2019-01-14T18:38:34.517Z,97118.40
2019-01-14T18:41:05.440Z,97112.93
2019-01-14T18:43:36.071Z,97115.82
2019-01-14T18:46:31.480Z,97113.13
2019-01-14T18:49:02.109Z,97121.46
2019-01-14T18:51:32.819Z,97124.52
2019-01-14T18:54:04.303Z,97129.78
2019-01-14T18:56:35.147Z,97130.47
2019-01-14T18:59:06.337Z,97131.58
2019-01-14T19:01:38.272Z,97122.41
2019-01-14T19:04:09.043Z,97130.06
2019-01-14T19:06:40.509Z,97135.44
2019-01-14T19:09:11.583Z,97140.47
2019-01-14T19:11:43.070Z,97156.77
2019-01-14T19:14:13.769Z,97163.72
2019-01-14T19:16:44.131Z,97158.16
2019-01-14T19:19:15.113Z,97158.19
2019-01-14T19:21:46.156Z,97166.16
2019-01-14T19:24:17.321Z,97165.80
2019-01-14T19:26:54.579Z,97169.21
2019-01-14T19:29:25.909Z,97170.52
2019-01-14T19:31:57.382Z,97173.73
2019-01-14T19:34:39.135Z,97181.15
2019-01-14T19:37:10.811Z,97176.73
2019-01-14T19:39:41.127Z,97183.08
2019-01-14T19:42:11.822Z,97186.03
2019-01-14T19:44:44.607Z,97191.45
2019-01-14T19:47:15.939Z,97201.19
2019-01-14T19:49:46.304Z,97205.58
2019-01-14T19:52:23.443Z,97212.42
2019-01-14T19:54:54.456Z,97212.98
2019-01-14T19:57:25.722Z,97218.84
2019-01-14T20:00:01.927Z,97219.65
2019-01-14T20:02:32.231Z,97224.72
2019-01-14T20:05:10.605Z,97220.88
2019-01-14T20:07:42.243Z,97226.77
2019-01-14T20:10:14.863Z,97230.80
2019-01-14T20:12:49.905Z,97233.95
2019-01-14T20:15:21.941Z,97229.09
2019-01-14T20:17:59.564Z,97228.72
2019-01-14T20:20:38.431Z,97235.27
2019-01-14T20:23:12.255Z,97236.41
2019-01-14T20:25:42.894Z,97234.06
2019-01-14T20:28:13.634Z,97231.44
2019-01-14T20:30:44.904Z,97236.41
2019-01-14T20:33:19.630Z,97238.23
2019-01-14T20:35:49.993Z,97245.52
2019-01-14T20:38:20.583Z,97252.69
2019-01-14T20:40:51.606Z,97248.09
2019-01-14T20:43:23.334Z,97243.57
2019-01-14T20:45:54.410Z,97248.48
2019-01-14T20:48:24.803Z,97245.52
2019-01-14T20:50:55.403Z,97254.52
2019-01-14T20:53:26.367Z,97261.80
2019-01-14T20:55:57.030Z,97262.31
2019-01-14T20:58:28.370Z,97259.12
2019-01-14T21:00:59.332Z,97265.84
2019-01-14T21:03:30.655Z,97269.01
2019-01-14T21:06:08.051Z,97270.17
2019-01-14T21:08:38.448Z,97278.36
2019-01-14T21:11:09.647Z,97283.70
2019-01-14T21:13:41.091Z,97279.23
2019-01-14T21:16:20.969Z,97284.45
2019-01-14T21:18:52.391Z,97293.44
2019-01-14T21:21:23.542Z,97290.66
2019-01-14T21:23:54.502Z,97294.05
2019-01-14T21:26:25.166Z,97300.80
2019-01-14T21:28:55.629Z,97299.23
2019-01-14T21:31:26.442Z,97298.30
2019-01-14T21:33:57.819Z,97296.45
2019-01-14T21:36:28.177Z,97294.38
2019-01-14T21:38:59.205Z,97295.27
2019-01-14T21:41:31.497Z,97298.93
2019-01-14T21:44:03.104Z,97296.01
2019-01-14T21:46:33.837Z,97303.47
2019-01-14T21:49:05.534Z,97302.73
2019-01-14T21:51:36.587Z,97299.00
2019-01-14T21:54:07.278Z,97306.48
2019-01-14T21:56:39.760Z,97304.19
2019-01-14T21:59:18.284Z,97307.27
2019-01-14T22:01:49.049Z,97309.77
2019-01-14T22:04:33.641Z,97317.56
2019-01-14T22:07:04.004Z,97323.66
2019-01-14T22:09:37.839Z,97323.20
2019-01-14T22:12:09.031Z,97319.25
2019-01-14T22:14:40.004Z,97310.83
2019-01-14T22:17:10.730Z,97308.68
2019-01-14T22:19:42.155Z,97319.63
2019-01-14T22:22:12.550Z,97327.84
2019-01-14T22:25:01.127Z,97336.27
2019-01-14T22:27:44.360Z,97345.80
2019-01-14T22:30:19.325Z,97346.07
2019-01-14T22:32:50.516Z,97352.50
2019-01-14T22:35:25.339Z,97354.12
2019-01-14T22:37:56.678Z,97371.50
2019-01-14T22:40:27.850Z,97368.91
2019-01-14T22:42:59.570Z,97375.75
2019-01-14T22:45:30.270Z,97384.70
2019-01-14T22:48:00.592Z,97387.69
2019-01-14T22:50:31.609Z,97386.78
2019-01-14T22:53:02.448Z,97389.45
2019-01-14T22:55:34.477Z,97393.97
2019-01-14T22:58:05.255Z,97390.81
2019-01-14T23:01:34.547Z,97401.70
2019-01-14T23:04:05.723Z,97399.62
2019-01-14T23:07:00.638Z,97401.11
2019-01-14T23:09:31.625Z,97399.09
2019-01-14T23:12:03.064Z,97395.41
2019-01-14T23:14:34.824Z,97382.63
2019-01-14T23:17:05.574Z,97379.13
2019-01-14T23:19:36.490Z,97392.70
2019-01-14T23:22:07.537Z,97391.55
2019-01-14T23:24:38.592Z,97406.14
2019-01-14T23:27:09.210Z,97407.59
2019-01-14T23:29:40.982Z,97418.06
2019-01-14T23:32:11.292Z,97422.02
2019-01-14T23:34:42.242Z,97420.25
2019-01-14T23:37:12.879Z,97425.91
2019-01-14T23:39:43.503Z,97424.37
2019-01-14T23:42:14.829Z,97420.45
2019-01-14T23:44:45.896Z,97430.91
2019-01-14T23:47:16.980Z,97428.74
2019-01-14T23:49:47.967Z,97433.63
2019-01-14T23:52:19.015Z,97436.60
2019-01-14T23:54:50.162Z,97439.14
2019-01-14T23:57:21.190Z,97430.17
2019-01-14T23:59:52.256Z,97434.84
